Time;durP1;ratioP1;P1;durP2;ratioP2;P2;SDS_P1;SDS_P2;PMS_P1;PMS_P2;Temp;Humidity;BMP_temperature;BMP_pressure;BME280_temperature;BME280_humidity;BME280_pressure;Samples;Min_cycle;Max_cycle;Signal;HPM_P1;HPM_P2
2021/07/12 00:02:09;;;;;;;33.65;9.63;;;;;;;22.45;71.80;100655.95;1766354;79;21439;-62
2021/07/12 00:04:35;;;;;;;28.50;10.23;;;;;;;22.45;71.85;100649.97;1766665;79;20918;-65
2021/07/12 00:07:04;;;;;;;19.85;9.63;;;;;;;22.46;71.92;100652.22;1699722;82;20996;-61
2021/07/12 00:09:30;;;;;;;21.97;9.68;;;;;;;22.45;71.91;100655.95;1725307;81;21457;-62
2021/07/12 00:11:57;;;;;;;16.87;9.95;;;;;;;22.40;71.85;100656.83;1701219;82;21822;-63
2021/07/12 00:14:23;;;;;;;19.77;8.95;;;;;;;22.39;71.96;100661.45;1701612;82;21025;-62
2021/07/12 00:16:50;;;;;;;13.53;9.30;;;;;;;22.38;71.94;100659.72;1769745;79;21023;-66
2021/07/12 00:19:18;;;;;;;21.82;9.20;;;;;;;22.42;72.06;100664.39;1767071;79;20955;-66
2021/07/12 00:21:46;;;;;;;28.90;11.15;;;;;;;22.41;72.15;100657.20;1722830;81;21450;-66
2021/07/12 00:24:13;;;;;;;18.45;9.75;;;;;;;22.44;72.28;100662.42;1763043;79;21115;-67
2021/07/12 00:26:39;;;;;;;31.77;11.05;;;;;;;22.43;72.66;100659.29;1758897;79;20984;-65
2021/07/12 00:29:05;;;;;;;25.02;11.03;;;;;;;22.40;72.96;100660.92;1767326;79;21070;-62
2021/07/12 00:31:34;;;;;;;18.40;10.78;;;;;;;22.36;73.12;100660.34;1718983;81;20989;-62
2021/07/12 00:34:03;;;;;;;21.82;11.35;;;;;;;22.33;73.13;100657.37;1696663;83;21064;-65
2021/07/12 00:36:30;;;;;;;20.40;11.88;;;;;;;22.32;73.27;100658.38;1700559;82;21100;-66
2021/07/12 00:38:57;;;;;;;17.07;10.05;;;;;;;22.31;73.50;100655.76;1702138;82;20918;-66
2021/07/12 00:41:25;;;;;;;17.45;11.63;;;;;;;22.30;73.50;100656.28;1701364;82;20977;-66
2021/07/12 00:43:52;;;;;;;19.55;12.37;;;;;;;22.29;73.65;100658.64;1713588;82;21001;-67
2021/07/12 00:46:19;;;;;;;27.30;13.75;;;;;;;22.28;73.84;100654.66;1715052;82;21506;-67
2021/07/12 00:48:46;;;;;;;25.75;12.53;;;;;;;22.28;74.17;100655.55;1777306;78;21527;-65
2021/07/12 00:51:13;;;;;;;27.37;12.40;;;;;;;22.26;74.44;100660.28;1774546;78;21354;-65
2021/07/12 00:53:40;;;;;;;25.92;12.18;;;;;;;22.24;74.78;100667.73;1781988;78;21478;-66
2021/07/12 00:56:08;;;;;;;28.50;11.30;;;;;;;22.22;74.98;100662.91;1718880;82;21605;-65
2021/07/12 00:58:35;;;;;;;19.65;9.58;;;;;;;22.18;75.32;100662.30;1782878;78;21079;-63
2021/07/12 01:01:04;;;;;;;17.32;9.95;;;;;;;22.14;75.43;100654.49;1752087;78;21115;-64
2021/07/12 01:03:33;;;;;;;19.67;10.95;;;;;;;22.12;75.62;100663.31;1753913;79;21426;-63
2021/07/12 01:06:03;;;;;;;24.35;11.03;;;;;;;22.09;75.81;100656.76;1786307;78;21661;-63
2021/07/12 01:08:35;;;;;;;27.48;13.20;;;;;;;22.07;76.08;100655.51;1781804;78;21037;-65
2021/07/12 01:11:21;;;;;;;25.05;15.58;;;;;;;22.02;76.34;100662.75;1775004;78;21057;-60
2021/07/12 01:14:34;;;;;;;30.80;13.72;;;;;;;21.96;76.68;100661.03;1780527;78;20892;-61
2021/07/12 01:17:26;;;;;;;25.88;12.85;;;;;;;21.90;77.04;100658.32;1782468;78;21868;-60
2021/07/12 01:20:45;;;;;;;21.70;12.98;;;;;;;21.84;77.44;100651.52;1773888;78;21467;-60
2021/07/12 01:23:50;;;;;;;22.98;14.70;;;;;;;21.79;77.77;100651.56;1780175;78;21354;-61
2021/07/12 01:26:51;;;;;;;21.55;16.90;;;;;;;21.74;78.00;100654.16;1781203;78;20956;-61
2021/07/12 01:29:30;;;;;;;37.10;18.80;;;;;;;21.71;78.19;100655.78;1753922;80;21059;-60
2021/07/12 01:32:28;;;;;;;22.73;15.43;;;;;;;21.71;78.28;100648.95;1786128;78;20937;-59
2021/07/12 01:35:45;;;;;;;23.92;17.12;;;;;;;21.69;78.53;100644.64;1776836;78;20946;-60
2021/07/12 01:39:01;;;;;;;27.90;15.55;;;;;;;21.67;78.69;100644.76;1782517;78;20897;-59
2021/07/12 01:42:09;;;;;;;24.60;15.53;;;;;;;21.65;79.00;100637.69;1753302;80;21150;-59
2021/07/12 01:45:10;;;;;;;22.52;14.43;;;;;;;21.61;79.42;100646.61;1755813;80;21129;-59
2021/07/12 01:47:49;;;;;;;18.65;12.58;;;;;;;21.53;79.99;100645.89;1772021;78;20994;-58
2021/07/12 01:50:33;;;;;;;28.02;21.20;;;;;;;21.43;80.66;100645.78;1751948;80;20946;-59
2021/07/12 01:53:36;;;;;;;27.98;17.35;;;;;;;21.33;81.32;100642.06;1737265;80;20996;-60
2021/07/12 01:56:09;;;;;;;34.18;20.57;;;;;;;21.25;82.00;100642.73;1734171;80;21044;-59
2021/07/12 01:59:06;;;;;;;28.32;18.80;;;;;;;21.18;82.66;100633.30;1776526;78;21872;-59
2021/07/12 02:01:35;;;;;;;26.25;19.40;;;;;;;21.15;82.97;100634.91;1778403;78;21431;-59
2021/07/12 02:04:03;;;;;;;44.75;24.70;;;;;;;21.10;83.75;100634.43;1751095;79;21023;-59
2021/07/12 02:06:38;;;;;;;32.75;21.27;;;;;;;21.03;83.98;100625.41;1780819;78;20945;-59
2021/07/12 02:09:11;;;;;;;35.65;21.62;;;;;;;21.00;84.49;100622.05;1755852;80;21513;-59
2021/07/12 02:11:44;;;;;;;35.65;19.48;;;;;;;20.99;84.65;100617.08;1778636;78;21739;-58
2021/07/12 02:14:17;;;;;;;33.17;21.13;;;;;;;20.98;84.68;100615.86;1779451;78;20961;-58
2021/07/12 02:16:45;;;;;;;29.70;18.23;;;;;;;20.98;84.57;100617.22;1782579;78;21521;-58
2021/07/12 02:19:11;;;;;;;27.32;17.45;;;;;;;20.99;84.35;100621.68;1778412;78;20972;-58
2021/07/12 02:21:43;;;;;;;33.92;22.70;;;;;;;21.01;84.18;100611.52;1729867;80;21543;-59
2021/07/12 02:24:11;;;;;;;37.42;24.57;;;;;;;21.03;84.35;100612.26;1779881;78;21794;-59
2021/07/12 02:26:39;;;;;;;38.55;27.00;;;;;;;21.01;84.62;100611.03;1782302;78;20989;-59
2021/07/12 02:29:06;;;;;;;31.82;17.82;;;;;;;21.01;84.86;100612.88;1781273;78;21399;-59
2021/07/12 02:31:34;;;;;;;38.00;21.37;;;;;;;21.01;85.09;100615.61;1753312;79;21026;-59
2021/07/12 02:34:02;;;;;;;23.05;14.43;;;;;;;21.04;85.14;100616.71;1779137;78;20949;-59
2021/07/12 02:36:28;;;;;;;25.85;13.50;;;;;;;21.07;85.18;100616.45;1729996;79;21148;-59
2021/07/12 02:38:55;;;;;;;22.02;12.80;;;;;;;21.09;84.98;100614.98;1779789;78;21009;-59
2021/07/12 02:41:23;;;;;;;28.42;15.60;;;;;;;21.11;84.97;100617.97;1776582;78;20949;-59
2021/07/12 02:43:50;;;;;;;21.40;12.88;;;;;;;21.14;84.99;100621.80;1716741;82;21454;-59
2021/07/12 02:46:18;;;;;;;22.48;13.43;;;;;;;21.16;84.88;100623.90;1709646;82;20930;-58
2021/07/12 02:48:45;;;;;;;20.02;12.70;;;;;;;21.21;84.77;100629.46;1780475;78;21484;-59
2021/07/12 02:51:14;;;;;;;19.62;11.18;;;;;;;21.24;84.42;100631.93;1781051;78;20909;-62
2021/07/12 02:53:46;;;;;;;18.95;11.53;;;;;;;21.27;84.27;100630.31;1780980;78;20977;-59
2021/07/12 02:56:13;;;;;;;15.50;10.58;;;;;;;21.29;83.94;100626.95;1782899;78;20973;-60
2021/07/12 02:58:40;;;;;;;17.90;10.60;;;;;;;21.29;83.72;100633.78;1686596;82;21057;-59
2021/07/12 03:01:07;;;;;;;20.10;11.93;;;;;;;21.32;83.71;100643.06;1779701;78;21735;-59
2021/07/12 03:03:35;;;;;;;16.82;10.90;;;;;;;21.33;83.76;100644.79;1786405;78;20969;-59
2021/07/12 03:06:12;;;;;;;18.40;11.35;;;;;;;21.32;83.91;100638.48;1778376;78;21410;-59
2021/07/12 03:08:56;;;;;;;14.93;11.30;;;;;;;21.33;84.17;100640.70;1780789;78;21410;-59
2021/07/12 03:11:25;;;;;;;26.00;16.63;;;;;;;21.36;84.52;100652.75;1787264;78;21620;-60
2021/07/12 03:14:23;;;;;;;19.23;13.65;;;;;;;21.36;84.85;100651.86;1759716;80;21114;-59
2021/07/12 03:16:49;;;;;;;30.43;20.75;;;;;;;21.36;85.15;100655.47;1778168;78;21055;-59
2021/07/12 03:19:28;;;;;;;24.70;17.48;;;;;;;21.38;85.07;100651.23;1754789;78;21024;-59
2021/07/12 03:21:55;;;;;;;36.85;26.33;;;;;;;21.43;84.92;100648.99;1778947;78;20949;-60
2021/07/12 03:24:22;;;;;;;31.50;19.35;;;;;;;21.49;84.45;100648.98;1752767;78;21357;-60
2021/07/12 03:26:52;;;;;;;29.20;23.50;;;;;;;21.55;84.16;100653.92;1782685;78;21791;-65
2021/07/12 03:29:19;;;;;;;42.73;26.80;;;;;;;21.61;83.75;100660.25;1777006;78;21023;-60
2021/07/12 03:31:46;;;;;;;37.60;23.22;;;;;;;21.66;83.33;100662.12;1778986;78;21065;-60
2021/07/12 03:34:14;;;;;;;34.30;23.42;;;;;;;21.75;83.07;100661.34;1781660;78;21115;-64
2021/07/12 03:36:41;;;;;;;42.55;30.82;;;;;;;21.84;82.46;100661.58;1754157;78;21551;-65
2021/07/12 03:39:08;;;;;;;39.83;25.65;;;;;;;21.90;82.18;100658.32;1777239;78;21742;-65
2021/07/12 03:41:37;;;;;;;32.75;21.05;;;;;;;21.99;81.77;100665.72;1755679;79;21024;-65
2021/07/12 03:44:06;;;;;;;39.23;25.80;;;;;;;22.06;81.64;100655.66;1768800;78;22184;-65
2021/07/12 03:46:34;;;;;;;31.62;19.32;;;;;;;22.16;81.61;100657.95;1766934;79;20972;-65
2021/07/12 03:49:09;;;;;;;26.07;14.30;;;;;;;22.23;81.30;100655.09;1711603;81;21691;-66
2021/07/12 03:51:36;;;;;;;;;;;;;;;22.30;81.22;100656.28;1692686;82;21339;-65
2021/07/12 03:54:04;;;;;;;28.27;17.48;;;;;;;22.39;80.95;100649.64;1702697;83;20229;-65
2021/07/12 03:56:32;;;;;;;46.80;32.08;;;;;;;22.49;80.84;100651.98;1700393;82;21629;-64
2021/07/12 03:58:58;;;;;;;45.52;33.28;;;;;;;22.60;79.78;100650.52;1764924;79;20929;-63
2021/07/12 04:01:26;;;;;;;48.90;34.73;;;;;;;22.74;79.22;100645.72;1767591;79;21116;-64
2021/07/12 04:03:53;;;;;;;47.85;28.17;;;;;;;22.82;78.88;100641.80;1767032;79;21067;-64
2021/07/12 04:06:20;;;;;;;45.92;23.12;;;;;;;22.89;79.02;100649.83;1768734;79;20946;-64
2021/07/12 04:08:47;;;;;;;35.03;17.30;;;;;;;22.98;79.10;100643.16;1767892;79;21040;-64
2021/07/12 04:11:15;;;;;;;27.80;14.68;;;;;;;23.10;79.11;100647.55;1764719;79;21068;-64
2021/07/12 04:13:41;;;;;;;21.57;13.05;;;;;;;23.21;77.57;100652.53;1767930;79;21023;-64
2021/07/12 04:16:09;;;;;;;30.70;13.80;;;;;;;23.25;77.54;100651.24;1768388;79;21328;-64
2021/07/12 04:18:37;;;;;;;30.52;18.55;;;;;;;23.34;76.48;100646.84;1768211;79;20945;-64
2021/07/12 04:21:04;;;;;;;35.90;27.70;;;;;;;23.48;76.41;100648.31;1764460;79;21025;-65
2021/07/12 04:23:30;;;;;;;37.33;27.58;;;;;;;23.61;76.23;100642.08;1768861;79;21104;-65
2021/07/12 04:25:56;;;;;;;49.98;35.52;;;;;;;23.77;75.36;100640.67;1767757;79;21068;-65
2021/07/12 04:28:23;;;;;;;48.85;35.70;;;;;;;23.86;74.75;100642.02;1763586;79;21058;-65
2021/07/12 04:30:50;;;;;;;44.48;30.75;;;;;;;23.93;74.32;100641.46;1761936;79;21029;-65
2021/07/12 04:33:17;;;;;;;40.58;26.12;;;;;;;24.02;74.29;100644.23;1771285;79;20889;-65
2021/07/12 04:35:43;;;;;;;45.52;31.33;;;;;;;24.11;74.14;100642.50;1767400;79;20945;-65
2021/07/12 04:38:09;;;;;;;39.55;23.65;;;;;;;24.22;73.82;100645.59;1768574;79;20939;-64
2021/07/12 04:40:36;;;;;;;21.93;14.50;;;;;;;24.28;72.06;100645.00;1766987;79;22353;-65
2021/07/12 04:43:03;;;;;;;21.50;14.18;;;;;;;24.30;71.93;100641.61;1766912;79;21035;-67
2021/07/12 04:45:30;;;;;;;21.42;14.03;;;;;;;24.38;71.97;100648.22;1728164;81;21455;-65
2021/07/12 04:47:56;;;;;;;18.80;12.65;;;;;;;24.50;72.32;100644.80;1731821;80;20953;-65
2021/07/12 04:50:23;;;;;;;24.02;15.08;;;;;;;24.63;71.63;100648.59;1729754;81;21037;-65
2021/07/12 04:52:49;;;;;;;24.35;15.72;;;;;;;24.70;70.91;100651.96;1732632;81;21728;-65
2021/07/12 04:55:16;;;;;;;23.22;13.93;;;;;;;24.78;70.71;100651.26;1726664;81;20910;-65
2021/07/12 04:57:43;;;;;;;26.70;16.62;;;;;;;24.88;70.46;100650.73;1688879;83;20905;-65
2021/07/12 05:00:11;;;;;;;43.78;22.50;;;;;;;24.96;69.10;100649.11;1689822;83;21409;-65
2021/07/12 05:02:38;;;;;;;46.18;30.90;;;;;;;25.03;69.05;100656.58;1689677;83;21109;-65
2021/07/12 05:05:09;;;;;;;39.58;26.33;;;;;;;25.16;68.25;100664.95;1731698;80;21142;-64
2021/07/12 05:07:35;;;;;;;36.75;25.62;;;;;;;25.25;67.65;100661.81;1690506;82;21447;-64
2021/07/12 05:10:03;;;;;;;26.77;18.05;;;;;;;25.34;67.37;100663.66;1731373;81;20986;-64
2021/07/12 05:12:30;;;;;;;23.67;18.02;;;;;;;25.40;66.85;100664.41;1729601;81;22254;-65
2021/07/12 05:14:59;;;;;;;23.15;17.15;;;;;;;25.48;66.32;100661.42;1689472;82;20978;-65
2021/07/12 05:17:27;;;;;;;30.20;21.55;;;;;;;25.54;66.15;100662.20;1732212;81;21936;-65
2021/07/12 05:19:54;;;;;;;51.37;37.67;;;;;;;25.64;66.29;100661.62;1732360;81;21506;-65
2021/07/12 05:22:25;;;;;;;51.80;34.35;;;;;;;25.78;66.28;100666.23;1731767;81;21610;-65
2021/07/12 05:24:49;;;;;;;42.85;28.77;;;;;;;25.85;66.48;100671.44;1730580;81;20993;-64
2021/07/12 05:27:16;;;;;;;31.40;19.95;;;;;;;25.93;66.46;100670.14;1729530;81;20985;-64
2021/07/12 05:29:43;;;;;;;27.25;16.70;;;;;;;26.06;66.30;100673.02;1727221;81;21082;-64
2021/07/12 05:32:09;;;;;;;25.27;13.50;;;;;;;26.17;65.79;100665.92;1724766;81;21049;-64
2021/07/12 05:34:36;;;;;;;20.48;13.53;;;;;;;26.30;64.03;100677.87;1732255;81;20950;-64
2021/07/12 05:37:03;;;;;;;32.48;17.17;;;;;;;26.42;63.37;100686.77;1733213;81;21435;-59
2021/07/12 05:39:29;;;;;;;32.63;16.35;;;;;;;26.47;63.02;100689.89;1735914;81;22283;-59
2021/07/12 05:41:56;;;;;;;20.45;13.25;;;;;;;26.52;62.90;100700.38;1729341;81;22144;-59
2021/07/12 05:44:22;;;;;;;19.67;11.80;;;;;;;26.53;62.95;100695.27;1729881;80;21589;-59
2021/07/12 05:46:49;;;;;;;18.67;11.57;;;;;;;26.59;62.41;100696.84;1720563;81;21585;-59
2021/07/12 05:49:15;;;;;;;17.35;11.22;;;;;;;26.65;62.94;100703.59;1773685;79;21462;-65
2021/07/12 05:51:42;;;;;;;17.25;11.00;;;;;;;26.78;62.61;100702.31;1774347;79;21046;-64
2021/07/12 05:54:08;;;;;;;16.45;11.08;;;;;;;26.93;61.72;100721.86;1773568;79;21483;-65
2021/07/12 05:56:35;;;;;;;14.45;10.55;;;;;;;27.05;61.28;100714.19;1776334;79;20883;-60
2021/07/12 05:59:02;;;;;;;18.82;10.48;;;;;;;27.09;60.21;100713.71;1774184;79;21012;-60
2021/07/12 06:01:28;;;;;;;16.32;9.85;;;;;;;27.12;60.25;100710.63;1771872;79;21067;-65
2021/07/12 06:03:56;;;;;;;13.38;8.80;;;;;;;27.16;59.11;100717.52;1770325;79;21496;-65
2021/07/12 06:06:23;;;;;;;15.60;9.00;;;;;;;27.15;58.48;100715.80;1773649;79;21630;-64
2021/07/12 06:08:50;;;;;;;19.75;8.93;;;;;;;27.17;58.80;100708.24;1770972;79;20933;-60
2021/07/12 06:13:46;;;;;;;21.60;9.00;;;;;;;27.39;58.64;100708.69;1770102;79;21032;-61
2021/07/12 06:16:14;;;;;;;17.17;8.10;;;;;;;27.56;58.51;100704.66;1773986;79;21561;-62
2021/07/12 06:18:41;;;;;;;12.47;7.12;;;;;;;27.77;57.83;100720.72;1771881;79;21110;-59
2021/07/12 06:21:07;;;;;;;10.45;7.17;;;;;;;27.99;55.44;100724.74;1774668;79;20918;-65
2021/07/12 06:23:37;;;;;;;13.03;7.55;;;;;;;28.25;53.91;100722.39;1734074;80;21084;-65
2021/07/12 06:26:05;;;;;;;11.48;5.62;;;;;;;28.49;52.29;100711.02;1692008;82;21470;-65
2021/07/12 06:28:32;;;;;;;11.93;6.20;;;;;;;28.65;50.54;100724.47;1735509;80;21011;-65
2021/07/12 06:30:59;;;;;;;9.18;6.37;;;;;;;28.78;48.55;100730.83;1701700;82;21103;-65
2021/07/12 06:33:28;;;;;;;8.85;6.95;;;;;;;28.93;48.25;100738.74;1774532;79;21091;-59
2021/07/12 06:35:55;;;;;;;9.15;6.12;;;;;;;29.11;48.23;100735.80;1774120;79;20970;-64
2021/07/12 06:38:22;;;;;;;10.70;6.10;;;;;;;29.25;47.80;100737.45;1743565;80;21423;-63
2021/07/12 06:40:49;;;;;;;14.47;6.97;;;;;;;29.39;47.51;100737.23;1731159;80;21049;-63
2021/07/12 06:43:18;;;;;;;16.12;6.70;;;;;;;29.49;46.69;100753.62;1703571;82;21356;-59
2021/07/12 06:45:45;;;;;;;16.40;6.87;;;;;;;29.51;47.14;100737.73;1711102;80;20914;-63
2021/07/12 06:48:11;;;;;;;14.23;7.12;;;;;;;29.54;46.40;100731.87;1735353;80;20894;-65
2021/07/12 06:50:39;;;;;;;9.18;7.40;;;;;;;29.54;46.11;100734.64;1779442;78;20948;-63
2021/07/12 06:53:06;;;;;;;14.10;8.18;;;;;;;29.50;46.90;100738.27;1779843;78;21059;-64
2021/07/12 06:55:32;;;;;;;11.25;7.65;;;;;;;29.50;47.21;100724.97;1781643;78;21412;-60
2021/07/12 06:58:00;;;;;;;12.80;7.97;;;;;;;29.47;46.94;100717.05;1779750;78;21058;-59
2021/07/12 07:00:29;;;;;;;13.68;8.18;;;;;;;29.27;47.17;100714.67;1778288;78;21379;-59
2021/07/12 07:03:00;;;;;;;11.90;7.35;;;;;;;29.15;48.14;100715.08;1773384;79;21417;-59
2021/07/12 07:05:28;;;;;;;14.25;8.58;;;;;;;29.19;48.52;100709.19;1776993;78;21450;-59
2021/07/12 07:07:55;;;;;;;14.98;8.48;;;;;;;29.19;48.96;100702.29;1776743;78;22255;-60
2021/07/12 07:10:22;;;;;;;10.15;8.10;;;;;;;29.22;49.51;100714.35;1726953;80;20925;-60
2021/07/12 07:12:53;;;;;;;14.45;8.05;;;;;;;29.33;49.11;100733.31;1776865;78;21359;-58
2021/07/12 07:15:20;;;;;;;15.53;8.35;;;;;;;29.40;48.46;100714.98;1777706;78;21762;-59
2021/07/12 07:17:49;;;;;;;9.15;7.95;;;;;;;29.44;48.28;100703.94;1779211;78;21429;-60
2021/07/12 07:20:16;;;;;;;10.25;8.70;;;;;;;29.56;48.59;100717.37;1781623;78;21339;-59
2021/07/12 07:22:43;;;;;;;12.03;8.60;;;;;;;29.63;48.46;100718.36;1778421;78;20913;-60
2021/07/12 07:25:11;;;;;;;16.32;9.45;;;;;;;29.52;48.21;100721.00;1779114;78;20918;-60
2021/07/12 07:27:40;;;;;;;10.53;9.10;;;;;;;29.41;49.06;100715.88;1753488;78;21011;-59
2021/07/12 07:30:10;;;;;;;11.38;9.18;;;;;;;29.33;49.85;100716.74;1776905;78;20909;-60
2021/07/12 07:32:38;;;;;;;11.90;9.25;;;;;;;29.32;50.40;100726.06;1779754;78;21630;-60
2021/07/12 07:35:05;;;;;;;13.03;9.38;;;;;;;29.28;50.80;100715.02;1779484;78;20993;-60
2021/07/12 07:37:32;;;;;;;11.80;9.60;;;;;;;29.09;51.39;100715.80;1777079;78;21004;-60
2021/07/12 07:39:59;;;;;;;11.50;9.65;;;;;;;28.91;52.03;100712.38;1779915;78;20995;-65
2021/07/12 07:42:26;;;;;;;14.80;9.10;;;;;;;28.87;52.74;100709.10;1779336;78;21050;-66
2021/07/12 07:44:52;;;;;;;10.35;9.33;;;;;;;28.84;52.64;100719.96;1777532;78;21506;-66
2021/07/12 07:47:19;;;;;;;17.25;9.85;;;;;;;28.79;51.75;100708.59;1772755;79;21031;-66
2021/07/12 07:49:46;;;;;;;12.35;9.40;;;;;;;28.80;51.86;100703.42;1776225;79;21514;-61
2021/07/12 07:52:12;;;;;;;14.53;9.38;;;;;;;28.82;51.98;100698.59;1770821;79;21837;-66
2021/07/12 07:54:39;;;;;;;14.68;9.73;;;;;;;28.92;52.13;100703.06;1774592;79;21149;-66
2021/07/12 07:57:06;;;;;;;10.48;9.33;;;;;;;29.02;51.49;100699.08;1770292;79;21135;-67
2021/07/12 07:59:33;;;;;;;17.20;9.00;;;;;;;29.15;51.53;100704.03;1750942;79;20964;-60
2021/07/12 08:02:00;;;;;;;10.23;8.15;;;;;;;29.31;51.84;100703.64;1769870;79;21060;-60
2021/07/12 08:04:26;;;;;;;12.13;8.20;;;;;;;29.44;49.65;100694.28;1770928;79;20993;-60
2021/07/12 08:06:55;;;;;;;14.75;7.50;;;;;;;29.45;48.50;100697.38;1767136;79;20955;-61
2021/07/12 08:11:57;;;;;;;8.95;6.83;;;;;;;29.57;46.41;100703.89;1770281;79;21263;-61
2021/07/12 08:14:25;;;;;;;9.23;7.10;;;;;;;29.71;45.92;100692.05;1777269;79;21009;-63
2021/07/12 08:16:51;;;;;;;15.08;5.65;;;;;;;29.85;46.41;100688.19;1770992;79;21165;-61
2021/07/12 08:19:20;;;;;;;9.90;5.30;;;;;;;29.99;43.54;100677.73;1771261;79;20907;-61
2021/07/12 08:21:47;;;;;;;15.53;5.90;;;;;;;30.04;42.55;100676.34;1769941;79;21737;-61
2021/07/12 08:24:13;;;;;;;9.10;5.67;;;;;;;30.09;42.02;100684.94;1771795;79;20943;-62
2021/07/12 08:26:41;;;;;;;10.58;6.15;;;;;;;30.15;41.44;100680.92;1770381;79;20935;-62
2021/07/12 08:29:08;;;;;;;6.67;5.25;;;;;;;30.24;40.50;100682.23;1767777;79;21389;-62
2021/07/12 08:31:35;;;;;;;9.65;4.62;;;;;;;30.34;39.47;100680.59;1771830;79;20993;-62
2021/07/12 08:34:03;;;;;;;11.75;4.92;;;;;;;30.45;39.79;100685.15;1770541;79;21932;-68
2021/07/12 08:36:30;;;;;;;11.43;5.22;;;;;;;30.53;38.54;100686.98;1771483;79;20910;-67
2021/07/12 08:38:59;;;;;;;6.97;4.70;;;;;;;30.63;38.72;100681.76;1775323;79;20986;-67
2021/07/12 08:41:25;;;;;;;11.55;7.75;;;;;;;30.81;38.45;100685.54;1773101;79;20994;-62
2021/07/12 08:43:55;;;;;;;12.90;8.30;;;;;;;31.03;44.94;100692.02;1771378;79;21576;-59
2021/07/12 08:46:22;;;;;;;16.23;8.38;;;;;;;31.06;46.74;100704.13;1737762;79;21154;-64
2021/07/12 08:48:48;;;;;;;13.58;7.90;;;;;;;30.95;45.47;100703.20;1692709;83;22015;-66
2021/07/12 08:51:15;;;;;;;18.37;8.15;;;;;;;30.77;45.03;100703.57;1727309;82;21119;-67
2021/07/12 08:53:42;;;;;;;11.57;7.90;;;;;;;30.62;45.87;100691.08;1730406;81;21107;-62
2021/07/12 08:56:08;;;;;;;10.58;7.72;;;;;;;30.50;45.24;100687.36;1731885;81;21056;-63
2021/07/12 08:58:37;;;;;;;8.98;8.05;;;;;;;30.43;44.14;100711.30;1729055;81;22390;-67
2021/07/12 09:01:06;;;;;;;12.65;8.85;;;;;;;30.28;45.60;100698.27;1687943;83;22296;-63
2021/07/12 09:03:35;;;;;;;14.03;9.38;;;;;;;30.25;47.43;100688.09;1669331;83;21135;-67
2021/07/12 09:06:13;;;;;;;12.55;8.93;;;;;;;30.23;48.34;100697.09;1671108;83;20930;-64
2021/07/12 09:08:56;;;;;;;12.80;9.60;;;;;;;30.23;48.67;100691.56;1670809;84;21332;-62
2021/07/12 09:11:35;;;;;;;13.90;9.13;;;;;;;30.22;48.79;100699.02;1669696;83;21039;-62
2021/07/12 09:14:10;;;;;;;13.35;9.48;;;;;;;30.20;49.66;100694.70;1673037;84;21109;-62
2021/07/12 09:16:51;;;;;;;9.88;8.98;;;;;;;30.12;49.44;100703.91;1671831;83;20918;-62
2021/07/12 09:19:33;;;;;;;13.88;9.45;;;;;;;30.07;49.23;100695.33;1689198;83;21194;-62
2021/07/12 09:22:07;;;;;;;12.40;9.60;;;;;;;30.06;49.67;100697.75;1690954;83;22105;-68
2021/07/12 09:24:50;;;;;;;11.73;9.28;;;;;;;30.07;50.34;100695.33;1670984;83;21124;-62
2021/07/12 09:27:20;;;;;;;11.05;8.90;;;;;;;30.05;49.96;100699.64;1670492;83;20942;-66
2021/07/12 09:29:50;;;;;;;12.47;9.03;;;;;;;29.99;50.08;100699.84;1670118;83;21005;-68
2021/07/12 09:32:20;;;;;;;17.35;9.83;;;;;;;29.95;50.45;100697.08;1668889;84;21589;-62
2021/07/12 09:34:47;;;;;;;12.35;9.88;;;;;;;29.95;49.73;100703.15;1672916;83;20990;-62
2021/07/12 09:37:18;;;;;;;16.48;9.83;;;;;;;29.95;50.24;100695.70;1669701;83;21382;-69
2021/07/12 09:39:51;;;;;;;16.27;10.00;;;;;;;29.97;51.04;100696.41;1669698;83;21896;-68
2021/07/12 09:42:24;;;;;;;13.45;10.55;;;;;;;29.96;51.08;100702.11;1671191;83;21620;-62
2021/07/12 09:44:57;;;;;;;10.88;9.78;;;;;;;29.87;52.07;100691.63;1733653;79;21602;-67
2021/07/12 09:47:28;;;;;;;15.03;8.58;;;;;;;29.78;51.13;100692.20;1774621;79;21033;-67
2021/07/12 09:50:12;;;;;;;12.70;8.85;;;;;;;29.73;50.01;100696.91;1769779;79;21121;-68
2021/07/12 09:52:46;;;;;;;9.60;8.28;;;;;;;29.77;49.29;100699.30;1773236;79;21016;-68
2021/07/12 09:55:17;;;;;;;9.25;7.62;;;;;;;29.87;48.27;100698.53;1775069;79;21379;-63
2021/07/12 09:57:44;;;;;;;13.18;7.35;;;;;;;29.91;46.34;100694.35;1759265;79;22907;-68
2021/07/12 10:00:14;;;;;;;10.13;7.92;;;;;;;29.92;46.21;100695.23;1750360;79;20990;-68
2021/07/12 10:02:41;;;;;;;8.95;7.55;;;;;;;29.93;46.64;100688.66;1772988;79;21726;-68
2021/07/12 10:05:11;;;;;;;8.90;7.17;;;;;;;29.97;46.77;100677.06;1774732;79;21000;-62
2021/07/12 10:07:39;;;;;;;8.30;6.97;;;;;;;30.06;45.39;100690.84;1771865;79;21509;-61
2021/07/12 10:10:16;;;;;;;8.25;6.58;;;;;;;30.07;45.28;100693.94;1769531;79;21453;-62
2021/07/12 10:12:45;;;;;;;9.25;7.15;;;;;;;30.07;44.97;100689.80;1736155;80;20985;-62
2021/07/12 10:15:13;;;;;;;10.93;7.28;;;;;;;30.07;44.94;100684.27;1733673;80;21026;-62
2021/07/12 10:17:41;;;;;;;9.03;7.20;;;;;;;30.08;44.43;100691.52;1703068;82;20987;-63
2021/07/12 10:20:13;;;;;;;9.95;6.58;;;;;;;30.06;44.24;100679.78;1707782;82;21082;-62
2021/07/12 10:22:46;;;;;;;8.60;6.62;;;;;;;30.03;42.97;100679.62;1708459;82;21049;-63
2021/07/12 10:25:13;;;;;;;8.05;6.20;;;;;;;30.05;43.54;100673.92;1705305;82;21010;-63
2021/07/12 10:27:53;;;;;;;9.43;6.45;;;;;;;30.10;42.98;100686.66;1706826;82;22192;-62
2021/07/12 10:30:47;;;;;;;10.25;5.37;;;;;;;30.18;42.43;100678.32;1706770;82;21001;-62
2021/07/12 10:33:17;;;;;;;8.30;5.42;;;;;;;30.27;41.02;100670.28;1773158;79;20929;-62
2021/07/12 10:35:52;;;;;;;11.03;4.95;;;;;;;30.42;40.39;100669.47;1769493;79;21580;-62
2021/07/12 10:38:46;;;;;;;9.70;5.53;;;;;;;30.54;39.88;100669.34;1771755;79;20877;-62
2021/07/12 10:41:23;;;;;;;6.97;5.60;;;;;;;30.66;40.19;100670.31;1770940;79;22187;-63
2021/07/12 10:43:58;;;;;;;10.05;6.10;;;;;;;30.75;39.10;100683.00;1775553;79;20933;-62
2021/07/12 10:46:32;;;;;;;7.65;6.85;;;;;;;30.78;41.07;100679.84;1771914;79;21308;-62
2021/07/12 10:49:39;;;;;;;13.15;7.65;;;;;;;30.78;42.25;100682.61;1772046;79;21028;-61
2021/07/12 10:52:07;;;;;;;8.68;7.17;;;;;;;30.72;44.03;100684.77;1772371;79;21037;-61
2021/07/12 10:54:55;;;;;;;13.35;8.38;;;;;;;30.58;45.09;100690.04;1772848;79;21032;-67
2021/07/12 10:57:22;;;;;;;14.93;8.43;;;;;;;30.51;48.72;100685.47;1768257;79;21005;-69
2021/07/12 10:59:48;;;;;;;9.53;8.53;;;;;;;30.37;50.55;100691.27;1770957;79;21002;-69
2021/07/12 11:02:21;;;;;;;11.75;9.08;;;;;;;30.23;51.03;100692.44;1726001;79;21064;-69
2021/07/12 11:04:52;;;;;;;15.28;9.40;;;;;;;30.18;51.53;100683.85;1770087;79;21143;-70
2021/07/12 11:07:42;;;;;;;10.65;8.63;;;;;;;30.14;52.06;100682.48;1749796;79;22260;-69
2021/07/12 11:10:38;;;;;;;15.03;7.58;;;;;;;30.13;51.22;100686.28;1770589;79;21028;-69
2021/07/12 11:13:03;;;;;;;11.40;7.05;;;;;;;30.12;47.49;100690.97;1771742;79;20916;-69
2021/07/12 11:15:37;;;;;;;7.83;7.03;;;;;;;30.10;47.52;100700.48;1771428;79;21005;-68
2021/07/12 11:18:24;;;;;;;;;;;;;;;29.97;48.08;100698.30;1752776;79;20889;-68
2021/07/12 11:21:06;;;;;;;7.80;6.75;;;;;;;29.84;50.92;100694.25;1768227;79;21125;-69
2021/07/12 11:23:50;;;;;;;10.98;6.35;;;;;;;29.64;49.76;100677.27;1774802;79;21853;-63
2021/07/12 11:26:28;;;;;;;7.53;6.47;;;;;;;29.63;48.47;100674.70;1769632;79;21426;-69
2021/07/12 11:28:59;;;;;;;11.22;6.50;;;;;;;29.78;48.47;100681.68;1772989;79;20916;-68
2021/07/12 11:31:57;;;;;;;11.68;6.03;;;;;;;29.93;47.45;100659.10;1736062;80;21132;-68
2021/07/12 11:34:48;;;;;;;10.03;7.05;;;;;;;30.11;46.06;100663.50;1707595;82;21355;-67
2021/07/12 11:37:26;;;;;;;9.95;6.40;;;;;;;30.32;46.75;100664.71;1707338;82;21068;-67
2021/07/12 11:39:57;;;;;;;9.58;5.90;;;;;;;30.38;46.21;100663.95;1708092;82;21514;-68